sensor_id;sensor_type;location;lat;lon;timestamp;P1;durP1;ratioP1;P2;durP2;ratioP2
67195;SDS011;54122;53.538;49.366;2023-02-24T00:01:37;14.10;;;4.70;;
67195;SDS011;54122;53.538;49.366;2023-02-24T00:04:08;8.65;;;3.60;;
67195;SDS011;54122;53.538;49.366;2023-02-24T00:06:39;15.88;;;5.05;;
67195;SDS011;54122;53.538;49.366;2023-02-24T00:09:18;8.77;;;3.25;;
67195;SDS011;54122;53.538;49.366;2023-02-24T00:11:51;16.95;;;5.47;;
67195;SDS011;54122;53.538;49.366;2023-02-24T00:14:23;17.83;;;5.07;;
67195;SDS011;54122;53.538;49.366;2023-02-24T00:16:51;8.60;;;4.28;;
67195;SDS011;54122;53.538;49.366;2023-02-24T00:19:19;10.25;;;3.50;;
67195;SDS011;54122;53.538;49.366;2023-02-24T00:21:48;10.55;;;5.15;;
67195;SDS011;54122;53.538;49.366;2023-02-24T00:24:15;10.48;;;4.75;;
67195;SDS011;54122;53.538;49.366;2023-02-24T00:26:42;12.00;;;4.65;;
67195;SDS011;54122;53.538;49.366;2023-02-24T00:29:10;10.85;;;4.38;;
67195;SDS011;54122;53.538;49.366;2023-02-24T00:31:40;11.30;;;4.40;;
67195;SDS011;54122;53.538;49.366;2023-02-24T00:34:07;10.30;;;3.97;;
67195;SDS011;54122;53.538;49.366;2023-02-24T00:36:34;16.83;;;6.25;;
67195;SDS011;54122;53.538;49.366;2023-02-24T00:39:02;14.15;;;5.07;;
67195;SDS011;54122;53.538;49.366;2023-02-24T00:41:36;9.75;;;4.55;;
67195;SDS011;54122;53.538;49.366;2023-02-24T00:44:07;10.70;;;5.07;;
67195;SDS011;54122;53.538;49.366;2023-02-24T00:46:35;10.73;;;4.63;;
67195;SDS011;54122;53.538;49.366;2023-02-24T00:49:04;12.75;;;5.18;;
67195;SDS011;54122;53.538;49.366;2023-02-24T00:51:36;14.40;;;6.63;;
67195;SDS011;54122;53.538;49.366;2023-02-24T00:54:04;10.02;;;3.78;;
67195;SDS011;54122;53.538;49.366;2023-02-24T00:56:31;11.70;;;3.80;;
67195;SDS011;54122;53.538;49.366;2023-02-24T00:58:57;16.10;;;5.38;;
67195;SDS011;54122;53.538;49.366;2023-02-24T01:01:26;11.55;;;4.95;;
67195;SDS011;54122;53.538;49.366;2023-02-24T01:03:57;14.48;;;3.65;;
67195;SDS011;54122;53.538;49.366;2023-02-24T01:06:26;12.23;;;5.38;;
67195;SDS011;54122;53.538;49.366;2023-02-24T01:08:54;8.38;;;4.18;;
67195;SDS011;54122;53.538;49.366;2023-02-24T01:11:22;8.52;;;4.45;;
67195;SDS011;54122;53.538;49.366;2023-02-24T01:14:13;11.93;;;5.22;;
67195;SDS011;54122;53.538;49.366;2023-02-24T01:16:42;14.90;;;6.22;;
67195;SDS011;54122;53.538;49.366;2023-02-24T01:19:11;15.55;;;5.38;;
67195;SDS011;54122;53.538;49.366;2023-02-24T01:21:37;12.27;;;4.65;;
67195;SDS011;54122;53.538;49.366;2023-02-24T01:24:03;21.65;;;6.15;;
67195;SDS011;54122;53.538;49.366;2023-02-24T01:26:29;8.05;;;3.92;;
67195;SDS011;54122;53.538;49.366;2023-02-24T01:28:55;5.60;;;1.85;;
67195;SDS011;54122;53.538;49.366;2023-02-24T01:31:22;11.10;;;3.90;;
67195;SDS011;54122;53.538;49.366;2023-02-24T01:33:49;10.35;;;3.78;;
67195;SDS011;54122;53.538;49.366;2023-02-24T01:36:20;10.38;;;3.97;;
67195;SDS011;54122;53.538;49.366;2023-02-24T01:38:50;11.93;;;4.97;;
67195;SDS011;54122;53.538;49.366;2023-02-24T01:41:18;10.82;;;4.32;;
67195;SDS011;54122;53.538;49.366;2023-02-24T01:44:03;7.50;;;3.65;;
67195;SDS011;54122;53.538;49.366;2023-02-24T01:46:54;11.32;;;4.53;;
67195;SDS011;54122;53.538;49.366;2023-02-24T01:49:33;11.30;;;4.53;;
67195;SDS011;54122;53.538;49.366;2023-02-24T01:52:09;7.50;;;3.40;;
67195;SDS011;54122;53.538;49.366;2023-02-24T01:57:21;15.85;;;4.72;;
67195;SDS011;54122;53.538;49.366;2023-02-24T01:59:51;8.32;;;3.90;;
67195;SDS011;54122;53.538;49.366;2023-02-24T02:02:26;7.80;;;4.10;;
67195;SDS011;54122;53.538;49.366;2023-02-24T02:04:57;9.75;;;4.15;;
67195;SDS011;54122;53.538;49.366;2023-02-24T02:07:29;11.30;;;3.95;;
67195;SDS011;54122;53.538;49.366;2023-02-24T02:09:56;11.52;;;4.45;;
67195;SDS011;54122;53.538;49.366;2023-02-24T02:12:29;10.70;;;3.30;;
67195;SDS011;54122;53.538;49.366;2023-02-24T02:15:01;11.77;;;5.78;;
67195;SDS011;54122;53.538;49.366;2023-02-24T02:29:11;11.20;;;4.60;;
67195;SDS011;54122;53.538;49.366;2023-02-24T02:40:23;16.08;;;5.43;;
67195;SDS011;54122;53.538;49.366;2023-02-24T02:45:38;12.25;;;5.45;;
67195;SDS011;54122;53.538;49.366;2023-02-24T02:48:18;19.25;;;5.78;;
67195;SDS011;54122;53.538;49.366;2023-02-24T02:51:12;12.63;;;5.07;;
67195;SDS011;54122;53.538;49.366;2023-02-24T02:54:45;13.00;;;5.25;;
67195;SDS011;54122;53.538;49.366;2023-02-24T02:56:44;11.45;;;4.38;;
67195;SDS011;54122;53.538;49.366;2023-02-24T02:59:15;11.65;;;4.45;;
67195;SDS011;54122;53.538;49.366;2023-02-24T03:01:48;16.08;;;5.38;;
67195;SDS011;54122;53.538;49.366;2023-02-24T03:04:17;15.63;;;5.28;;
67195;SDS011;54122;53.538;49.366;2023-02-24T03:06:52;17.13;;;5.88;;
67195;SDS011;54122;53.538;49.366;2023-02-24T03:09:26;19.75;;;4.90;;
67195;SDS011;54122;53.538;49.366;2023-02-24T03:12:03;12.20;;;5.57;;
67195;SDS011;54122;53.538;49.366;2023-02-24T03:14:34;14.20;;;4.53;;
67195;SDS011;54122;53.538;49.366;2023-02-24T03:17:04;15.95;;;6.32;;
67195;SDS011;54122;53.538;49.366;2023-02-24T03:19:36;17.52;;;6.25;;
67195;SDS011;54122;53.538;49.366;2023-02-24T03:22:06;23.73;;;5.40;;
67195;SDS011;54122;53.538;49.366;2023-02-24T03:24:43;15.75;;;5.28;;
67195;SDS011;54122;53.538;49.366;2023-02-24T03:27:11;15.32;;;5.70;;
67195;SDS011;54122;53.538;49.366;2023-02-24T03:32:23;17.02;;;6.78;;
67195;SDS011;54122;53.538;49.366;2023-02-24T03:37:44;19.80;;;6.25;;
67195;SDS011;54122;53.538;49.366;2023-02-24T03:40:12;17.73;;;6.65;;
67195;SDS011;54122;53.538;49.366;2023-02-24T03:42:40;14.50;;;4.47;;
67195;SDS011;54122;53.538;49.366;2023-02-24T03:45:10;19.38;;;7.13;;
67195;SDS011;54122;53.538;49.366;2023-02-24T03:47:37;29.77;;;9.23;;
67195;SDS011;54122;53.538;49.366;2023-02-24T03:50:13;21.35;;;9.13;;
67195;SDS011;54122;53.538;49.366;2023-02-24T03:52:45;23.02;;;8.85;;
67195;SDS011;54122;53.538;49.366;2023-02-24T04:00:55;13.98;;;5.25;;
67195;SDS011;54122;53.538;49.366;2023-02-24T04:03:45;28.17;;;11.50;;
67195;SDS011;54122;53.538;49.366;2023-02-24T04:12:17;10.25;;;4.40;;
67195;SDS011;54122;53.538;49.366;2023-02-24T04:20:04;14.00;;;5.00;;
67195;SDS011;54122;53.538;49.366;2023-02-24T04:22:48;7.05;;;3.30;;
67195;SDS011;54122;53.538;49.366;2023-02-24T04:25:20;7.78;;;3.22;;
67195;SDS011;54122;53.538;49.366;2023-02-24T04:27:52;15.95;;;4.22;;
67195;SDS011;54122;53.538;49.366;2023-02-24T04:30:21;14.25;;;5.07;;
67195;SDS011;54122;53.538;49.366;2023-02-24T04:32:48;17.55;;;4.68;;
67195;SDS011;54122;53.538;49.366;2023-02-24T04:35:15;6.82;;;3.28;;
67195;SDS011;54122;53.538;49.366;2023-02-24T04:37:45;9.43;;;3.58;;
67195;SDS011;54122;53.538;49.366;2023-02-24T04:40:11;8.63;;;3.75;;
67195;SDS011;54122;53.538;49.366;2023-02-24T04:45:14;12.57;;;4.97;;
67195;SDS011;54122;53.538;49.366;2023-02-24T04:47:42;10.68;;;4.80;;
67195;SDS011;54122;53.538;49.366;2023-02-24T04:50:11;11.50;;;4.45;;
67195;SDS011;54122;53.538;49.366;2023-02-24T04:52:48;10.82;;;4.22;;
67195;SDS011;54122;53.538;49.366;2023-02-24T04:55:15;11.93;;;3.45;;
67195;SDS011;54122;53.538;49.366;2023-02-24T04:57:42;14.52;;;4.18;;
67195;SDS011;54122;53.538;49.366;2023-02-24T05:00:12;18.25;;;5.50;;
67195;SDS011;54122;53.538;49.366;2023-02-24T05:02:47;30.38;;;7.88;;
67195;SDS011;54122;53.538;49.366;2023-02-24T05:05:15;25.80;;;9.82;;
67195;SDS011;54122;53.538;49.366;2023-02-24T05:07:42;43.05;;;16.35;;
67195;SDS011;54122;53.538;49.366;2023-02-24T05:10:12;39.22;;;15.07;;
67195;SDS011;54122;53.538;49.366;2023-02-24T05:12:40;37.63;;;15.88;;
67195;SDS011;54122;53.538;49.366;2023-02-24T05:15:07;55.85;;;19.35;;
67195;SDS011;54122;53.538;49.366;2023-02-24T05:17:33;65.50;;;21.58;;
67195;SDS011;54122;53.538;49.366;2023-02-24T05:20:00;62.85;;;18.67;;
67195;SDS011;54122;53.538;49.366;2023-02-24T05:22:47;27.45;;;10.73;;
67195;SDS011;54122;53.538;49.366;2023-02-24T05:25:18;16.83;;;8.57;;
67195;SDS011;54122;53.538;49.366;2023-02-24T05:27:44;20.50;;;8.95;;
67195;SDS011;54122;53.538;49.366;2023-02-24T05:30:12;24.77;;;9.15;;
67195;SDS011;54122;53.538;49.366;2023-02-24T05:32:39;20.23;;;9.45;;
67195;SDS011;54122;53.538;49.366;2023-02-24T05:35:05;18.50;;;8.88;;
67195;SDS011;54122;53.538;49.366;2023-02-24T05:37:35;20.20;;;10.10;;
67195;SDS011;54122;53.538;49.366;2023-02-24T05:40:03;21.23;;;10.35;;
67195;SDS011;54122;53.538;49.366;2023-02-24T05:42:29;30.98;;;12.95;;
67195;SDS011;54122;53.538;49.366;2023-02-24T05:45:00;24.80;;;9.95;;
67195;SDS011;54122;53.538;49.366;2023-02-24T05:47:26;22.70;;;9.45;;
67195;SDS011;54122;53.538;49.366;2023-02-24T05:49:52;21.60;;;9.60;;
67195;SDS011;54122;53.538;49.366;2023-02-24T05:52:21;22.83;;;9.52;;
67195;SDS011;54122;53.538;49.366;2023-02-24T05:54:47;23.05;;;10.48;;
67195;SDS011;54122;53.538;49.366;2023-02-24T05:57:15;17.55;;;8.85;;
67195;SDS011;54122;53.538;49.366;2023-02-24T05:59:49;20.25;;;8.35;;
67195;SDS011;54122;53.538;49.366;2023-02-24T06:02:17;22.17;;;8.75;;
67195;SDS011;54122;53.538;49.366;2023-02-24T06:04:51;15.68;;;8.07;;
67195;SDS011;54122;53.538;49.366;2023-02-24T06:07:19;22.95;;;8.75;;
67195;SDS011;54122;53.538;49.366;2023-02-24T06:09:48;14.55;;;8.18;;
67195;SDS011;54122;53.538;49.366;2023-02-24T06:12:19;14.73;;;7.77;;
67195;SDS011;54122;53.538;49.366;2023-02-24T06:14:47;16.13;;;8.02;;
67195;SDS011;54122;53.538;49.366;2023-02-24T06:17:16;17.33;;;8.50;;
67195;SDS011;54122;53.538;49.366;2023-02-24T06:19:43;16.65;;;8.05;;
67195;SDS011;54122;53.538;49.366;2023-02-24T06:22:12;15.05;;;7.65;;
67195;SDS011;54122;53.538;49.366;2023-02-24T06:24:39;16.92;;;8.45;;
67195;SDS011;54122;53.538;49.366;2023-02-24T06:27:09;19.88;;;8.90;;
67195;SDS011;54122;53.538;49.366;2023-02-24T06:29:42;19.98;;;8.35;;
67195;SDS011;54122;53.538;49.366;2023-02-24T06:32:09;20.58;;;8.70;;
67195;SDS011;54122;53.538;49.366;2023-02-24T06:34:37;19.65;;;8.30;;
67195;SDS011;54122;53.538;49.366;2023-02-24T06:37:04;14.98;;;7.75;;
67195;SDS011;54122;53.538;49.366;2023-02-24T06:39:34;17.13;;;8.45;;
67195;SDS011;54122;53.538;49.366;2023-02-24T06:42:00;21.45;;;8.05;;
67195;SDS011;54122;53.538;49.366;2023-02-24T06:44:33;21.35;;;7.78;;
67195;SDS011;54122;53.538;49.366;2023-02-24T06:47:00;16.65;;;7.18;;
67195;SDS011;54122;53.538;49.366;2023-02-24T06:49:27;16.23;;;7.30;;
67195;SDS011;54122;53.538;49.366;2023-02-24T06:51:54;14.55;;;6.38;;
67195;SDS011;54122;53.538;49.366;2023-02-24T06:54:21;14.45;;;6.90;;
67195;SDS011;54122;53.538;49.366;2023-02-24T06:56:48;14.27;;;7.53;;
67195;SDS011;54122;53.538;49.366;2023-02-24T06:59:14;17.17;;;7.10;;
67195;SDS011;54122;53.538;49.366;2023-02-24T07:01:46;17.45;;;7.07;;
67195;SDS011;54122;53.538;49.366;2023-02-24T07:04:14;12.85;;;6.88;;
67195;SDS011;54122;53.538;49.366;2023-02-24T07:06:42;16.23;;;7.28;;
67195;SDS011;54122;53.538;49.366;2023-02-24T07:09:13;18.85;;;7.07;;
67195;SDS011;54122;53.538;49.366;2023-02-24T07:11:42;22.30;;;7.18;;
67195;SDS011;54122;53.538;49.366;2023-02-24T07:14:13;13.80;;;6.90;;
67195;SDS011;54122;53.538;49.366;2023-02-24T07:16:40;18.35;;;6.55;;
67195;SDS011;54122;53.538;49.366;2023-02-24T07:19:14;16.88;;;7.03;;
67195;SDS011;54122;53.538;49.366;2023-02-24T07:21:41;13.10;;;6.75;;
67195;SDS011;54122;53.538;49.366;2023-02-24T07:24:15;16.42;;;7.10;;
67195;SDS011;54122;53.538;49.366;2023-02-24T07:26:56;17.13;;;6.53;;
67195;SDS011;54122;53.538;49.366;2023-02-24T07:29:24;15.68;;;6.38;;
67195;SDS011;54122;53.538;49.366;2023-02-24T07:31:51;19.00;;;7.35;;
67195;SDS011;54122;53.538;49.366;2023-02-24T07:34:23;15.88;;;6.93;;
67195;SDS011;54122;53.538;49.366;2023-02-24T07:36:50;18.65;;;7.57;;
67195;SDS011;54122;53.538;49.366;2023-02-24T07:39:17;19.75;;;6.35;;
67195;SDS011;54122;53.538;49.366;2023-02-24T07:41:44;11.40;;;5.68;;
67195;SDS011;54122;53.538;49.366;2023-02-24T07:44:14;9.50;;;5.00;;
67195;SDS011;54122;53.538;49.366;2023-02-24T07:46:44;13.15;;;5.47;;
67195;SDS011;54122;53.538;49.366;2023-02-24T07:49:14;15.98;;;6.70;;
67195;SDS011;54122;53.538;49.366;2023-02-24T07:51:44;12.82;;;5.93;;
67195;SDS011;54122;53.538;49.366;2023-02-24T07:54:12;17.90;;;7.00;;
67195;SDS011;54122;53.538;49.366;2023-02-24T07:56:40;18.70;;;6.30;;
67195;SDS011;54122;53.538;49.366;2023-02-24T07:59:11;16.45;;;6.88;;
67195;SDS011;54122;53.538;49.366;2023-02-24T08:01:43;14.75;;;6.68;;
67195;SDS011;54122;53.538;49.366;2023-02-24T08:04:20;15.23;;;5.75;;
67195;SDS011;54122;53.538;49.366;2023-02-24T08:06:54;16.95;;;6.32;;
67195;SDS011;54122;53.538;49.366;2023-02-24T08:09:24;13.57;;;6.20;;
67195;SDS011;54122;53.538;49.366;2023-02-24T08:12:11;12.73;;;6.30;;
67195;SDS011;54122;53.538;49.366;2023-02-24T08:14:46;14.27;;;6.18;;
67195;SDS011;54122;53.538;49.366;2023-02-24T08:17:21;16.45;;;6.38;;
67195;SDS011;54122;53.538;49.366;2023-02-24T08:19:51;13.57;;;6.32;;
67195;SDS011;54122;53.538;49.366;2023-02-24T08:22:36;19.17;;;6.57;;
67195;SDS011;54122;53.538;49.366;2023-02-24T08:25:08;13.55;;;6.65;;
67195;SDS011;54122;53.538;49.366;2023-02-24T08:27:43;11.52;;;6.25;;
67195;SDS011;54122;53.538;49.366;2023-02-24T08:30:10;17.38;;;7.55;;
67195;SDS011;54122;53.538;49.366;2023-02-24T08:32:51;17.00;;;6.90;;
67195;SDS011;54122;53.538;49.366;2023-02-24T08:35:26;12.45;;;5.70;;
67195;SDS011;54122;53.538;49.366;2023-02-24T08:38:01;13.82;;;6.50;;
67195;SDS011;54122;53.538;49.366;2023-02-24T08:40:30;17.73;;;6.20;;
67195;SDS011;54122;53.538;49.366;2023-02-24T08:43:00;10.15;;;5.45;;
67195;SDS011;54122;53.538;49.366;2023-02-24T08:45:44;14.25;;;6.55;;
67195;SDS011;54122;53.538;49.366;2023-02-24T08:48:17;15.15;;;6.18;;
67195;SDS011;54122;53.538;49.366;2023-02-24T08:50:52;12.60;;;5.72;;
67195;SDS011;54122;53.538;49.366;2023-02-24T08:53:19;15.88;;;5.85;;
67195;SDS011;54122;53.538;49.366;2023-02-24T08:55:46;13.07;;;6.30;;
67195;SDS011;54122;53.538;49.366;2023-02-24T08:58:16;19.65;;;5.97;;
67195;SDS011;54122;53.538;49.366;2023-02-24T09:00:44;14.15;;;5.18;;
67195;SDS011;54122;53.538;49.366;2023-02-24T09:03:14;14.90;;;5.45;;
67195;SDS011;54122;53.538;49.366;2023-02-24T09:06:32;11.18;;;5.20;;
67195;SDS011;54122;53.538;49.366;2023-02-24T09:08:50;14.13;;;6.55;;
67195;SDS011;54122;53.538;49.366;2023-02-24T09:11:39;12.73;;;5.45;;
67195;SDS011;54122;53.538;49.366;2023-02-24T09:14:13;15.95;;;5.88;;
67195;SDS011;54122;53.538;49.366;2023-02-24T09:16:42;14.85;;;5.72;;
67195;SDS011;54122;53.538;49.366;2023-02-24T09:19:27;14.18;;;5.65;;
67195;SDS011;54122;53.538;49.366;2023-02-24T09:22:24;12.00;;;5.68;;
67195;SDS011;54122;53.538;49.366;2023-02-24T09:25:22;13.48;;;6.45;;
67195;SDS011;54122;53.538;49.366;2023-02-24T09:27:51;11.38;;;5.45;;
67195;SDS011;54122;53.538;49.366;2023-02-24T09:30:33;14.15;;;5.75;;
67195;SDS011;54122;53.538;49.366;2023-02-24T09:33:08;14.57;;;5.50;;
67195;SDS011;54122;53.538;49.366;2023-02-24T09:35:44;8.93;;;4.43;;
67195;SDS011;54122;53.538;49.366;2023-02-24T09:38:21;10.85;;;5.25;;
67195;SDS011;54122;53.538;49.366;2023-02-24T09:41:29;11.07;;;6.05;;
67195;SDS011;54122;53.538;49.366;2023-02-24T09:44:32;13.68;;;5.55;;
67195;SDS011;54122;53.538;49.366;2023-02-24T09:47:03;14.52;;;5.30;;
67195;SDS011;54122;53.538;49.366;2023-02-24T09:52:22;14.43;;;6.32;;
67195;SDS011;54122;53.538;49.366;2023-02-24T09:55:05;15.05;;;6.32;;
67195;SDS011;54122;53.538;49.366;2023-02-24T09:58:02;12.88;;;5.38;;
67195;SDS011;54122;53.538;49.366;2023-02-24T10:00:37;17.27;;;6.80;;
67195;SDS011;54122;53.538;49.366;2023-02-24T10:06:17;15.77;;;5.05;;
67195;SDS011;54122;53.538;49.366;2023-02-24T10:11:41;11.55;;;5.50;;
67195;SDS011;54122;53.538;49.366;2023-02-24T10:16:53;13.43;;;5.32;;
67195;SDS011;54122;53.538;49.366;2023-02-24T10:19:43;10.95;;;5.25;;
67195;SDS011;54122;53.538;49.366;2023-02-24T10:22:15;12.43;;;5.00;;
67195;SDS011;54122;53.538;49.366;2023-02-24T10:25:00;18.20;;;5.70;;
67195;SDS011;54122;53.538;49.366;2023-02-24T10:27:40;12.27;;;5.80;;
67195;SDS011;54122;53.538;49.366;2023-02-24T10:30:29;15.00;;;6.30;;
67195;SDS011;54122;53.538;49.366;2023-02-24T10:33:43;14.32;;;6.40;;
67195;SDS011;54122;53.538;49.366;2023-02-24T10:36:14;14.93;;;5.03;;
67195;SDS011;54122;53.538;49.366;2023-02-24T10:38:44;9.93;;;4.68;;
67195;SDS011;54122;53.538;49.366;2023-02-24T10:41:11;12.60;;;5.90;;
67195;SDS011;54122;53.538;49.366;2023-02-24T10:43:38;11.65;;;5.95;;
67195;SDS011;54122;53.538;49.366;2023-02-24T10:48:55;11.05;;;4.93;;
67195;SDS011;54122;53.538;49.366;2023-02-24T10:51:35;12.27;;;5.18;;
67195;SDS011;54122;53.538;49.366;2023-02-24T10:54:05;13.57;;;5.00;;
67195;SDS011;54122;53.538;49.366;2023-02-24T10:56:46;13.05;;;5.43;;
67195;SDS011;54122;53.538;49.366;2023-02-24T10:59:55;11.23;;;5.45;;
67195;SDS011;54122;53.538;49.366;2023-02-24T11:02:45;11.82;;;5.45;;
67195;SDS011;54122;53.538;49.366;2023-02-24T11:05:36;12.50;;;6.03;;
67195;SDS011;54122;53.538;49.366;2023-02-24T11:08:34;19.25;;;7.68;;
67195;SDS011;54122;53.538;49.366;2023-02-24T11:11:13;9.57;;;5.20;;
67195;SDS011;54122;53.538;49.366;2023-02-24T11:13:50;14.90;;;5.97;;
67195;SDS011;54122;53.538;49.366;2023-02-24T11:19:28;18.45;;;6.20;;
67195;SDS011;54122;53.538;49.366;2023-02-24T11:21:56;10.57;;;5.40;;
67195;SDS011;54122;53.538;49.366;2023-02-24T11:24:24;27.55;;;9.30;;
67195;SDS011;54122;53.538;49.366;2023-02-24T11:26:50;19.92;;;7.03;;
67195;SDS011;54122;53.538;49.366;2023-02-24T11:29:38;42.63;;;15.48;;
67195;SDS011;54122;53.538;49.366;2023-02-24T11:32:23;40.50;;;11.50;;
67195;SDS011;54122;53.538;49.366;2023-02-24T11:40:43;15.90;;;6.88;;
67195;SDS011;54122;53.538;49.366;2023-02-24T11:43:20;16.23;;;5.88;;
67195;SDS011;54122;53.538;49.366;2023-02-24T11:48:42;24.55;;;8.93;;
67195;SDS011;54122;53.538;49.366;2023-02-24T11:51:19;32.53;;;13.93;;
67195;SDS011;54122;53.538;49.366;2023-02-24T11:53:49;44.85;;;16.20;;
67195;SDS011;54122;53.538;49.366;2023-02-24T11:59:11;76.93;;;24.88;;
67195;SDS011;54122;53.538;49.366;2023-02-24T12:05:14;25.50;;;8.43;;
67195;SDS011;54122;53.538;49.366;2023-02-24T12:07:44;15.18;;;6.70;;
67195;SDS011;54122;53.538;49.366;2023-02-24T12:10:27;20.52;;;7.25;;
67195;SDS011;54122;53.538;49.366;2023-02-24T12:13:07;23.38;;;8.60;;
67195;SDS011;54122;53.538;49.366;2023-02-24T12:18:32;15.45;;;5.35;;
67195;SDS011;54122;53.538;49.366;2023-02-24T12:23:46;22.63;;;9.35;;
67195;SDS011;54122;53.538;49.366;2023-02-24T12:26:30;12.80;;;5.28;;
67195;SDS011;54122;53.538;49.366;2023-02-24T12:29:10;24.45;;;8.40;;
67195;SDS011;54122;53.538;49.366;2023-02-24T12:40:11;18.67;;;6.03;;
67195;SDS011;54122;53.538;49.366;2023-02-24T12:43:16;20.35;;;7.00;;
67195;SDS011;54122;53.538;49.366;2023-02-24T12:45:59;14.45;;;5.93;;
67195;SDS011;54122;53.538;49.366;2023-02-24T12:48:52;18.17;;;8.65;;
67195;SDS011;54122;53.538;49.366;2023-02-24T12:56:32;15.45;;;6.05;;
67195;SDS011;54122;53.538;49.366;2023-02-24T12:59:20;15.50;;;6.43;;
67195;SDS011;54122;53.538;49.366;2023-02-24T13:04:42;15.68;;;6.35;;
67195;SDS011;54122;53.538;49.366;2023-02-24T13:12:59;26.13;;;7.95;;
67195;SDS011;54122;53.538;49.366;2023-02-24T13:15:50;25.40;;;7.53;;
67195;SDS011;54122;53.538;49.366;2023-02-24T13:18:23;18.40;;;6.70;;
67195;SDS011;54122;53.538;49.366;2023-02-24T13:23:50;21.90;;;6.93;;
67195;SDS011;54122;53.538;49.366;2023-02-24T13:26:22;21.60;;;6.93;;
67195;SDS011;54122;53.538;49.366;2023-02-24T13:29:03;14.52;;;6.60;;
67195;SDS011;54122;53.538;49.366;2023-02-24T13:31:40;14.23;;;5.85;;
67195;SDS011;54122;53.538;49.366;2023-02-24T13:34:13;16.40;;;6.13;;
67195;SDS011;54122;53.538;49.366;2023-02-24T13:36:49;22.73;;;7.25;;
67195;SDS011;54122;53.538;49.366;2023-02-24T13:39:35;16.88;;;6.03;;
67195;SDS011;54122;53.538;49.366;2023-02-24T13:44:52;21.23;;;6.63;;
67195;SDS011;54122;53.538;49.366;2023-02-24T13:47:31;15.15;;;5.00;;
67195;SDS011;54122;53.538;49.366;2023-02-24T13:50:09;20.48;;;6.88;;
67195;SDS011;54122;53.538;49.366;2023-02-24T14:01:19;12.23;;;5.03;;
67195;SDS011;54122;53.538;49.366;2023-02-24T14:06:39;38.13;;;12.95;;
67195;SDS011;54122;53.538;49.366;2023-02-24T14:09:13;13.82;;;6.85;;
67195;SDS011;54122;53.538;49.366;2023-02-24T14:11:43;22.25;;;6.65;;
67195;SDS011;54122;53.538;49.366;2023-02-24T14:14:14;15.50;;;6.32;;
67195;SDS011;54122;53.538;49.366;2023-02-24T14:16:42;23.75;;;7.10;;
67195;SDS011;54122;53.538;49.366;2023-02-24T14:19:13;24.88;;;7.55;;
67195;SDS011;54122;53.538;49.366;2023-02-24T14:21:51;12.57;;;5.30;;
67195;SDS011;54122;53.538;49.366;2023-02-24T14:24:23;15.52;;;5.70;;
67195;SDS011;54122;53.538;49.366;2023-02-24T14:26:52;16.85;;;5.75;;
67195;SDS011;54122;53.538;49.366;2023-02-24T14:29:21;33.95;;;8.07;;
67195;SDS011;54122;53.538;49.366;2023-02-24T14:31:56;17.13;;;5.78;;
67195;SDS011;54122;53.538;49.366;2023-02-24T14:34:24;18.30;;;6.82;;
67195;SDS011;54122;53.538;49.366;2023-02-24T14:36:56;16.90;;;6.65;;
67195;SDS011;54122;53.538;49.366;2023-02-24T14:39:25;18.15;;;6.65;;
67195;SDS011;54122;53.538;49.366;2023-02-24T14:42:29;14.00;;;6.05;;
67195;SDS011;54122;53.538;49.366;2023-02-24T14:44:50;16.80;;;6.38;;
67195;SDS011;54122;53.538;49.366;2023-02-24T14:47:19;24.73;;;7.32;;
67195;SDS011;54122;53.538;49.366;2023-02-24T14:49:56;24.55;;;7.07;;
67195;SDS011;54122;53.538;49.366;2023-02-24T14:54:54;32.22;;;9.55;;
67195;SDS011;54122;53.538;49.366;2023-02-24T14:57:25;23.05;;;9.88;;
67195;SDS011;54122;53.538;49.366;2023-02-24T14:59:55;26.75;;;8.73;;
67195;SDS011;54122;53.538;49.366;2023-02-24T15:02:35;30.25;;;10.15;;
67195;SDS011;54122;53.538;49.366;2023-02-24T15:05:07;14.55;;;3.92;;
67195;SDS011;54122;53.538;49.366;2023-02-24T15:07:36;22.45;;;8.30;;
67195;SDS011;54122;53.538;49.366;2023-02-24T15:10:03;15.40;;;5.90;;
67195;SDS011;54122;53.538;49.366;2023-02-24T15:12:35;14.27;;;5.80;;
67195;SDS011;54122;53.538;49.366;2023-02-24T15:15:21;15.63;;;5.38;;
67195;SDS011;54122;53.538;49.366;2023-02-24T15:17:54;13.00;;;6.18;;
67195;SDS011;54122;53.538;49.366;2023-02-24T15:20:32;23.77;;;7.40;;
67195;SDS011;54122;53.538;49.366;2023-02-24T15:23:03;14.77;;;6.13;;
67195;SDS011;54122;53.538;49.366;2023-02-24T15:25:39;13.80;;;4.82;;
67195;SDS011;54122;53.538;49.366;2023-02-24T15:28:41;21.65;;;5.97;;
67195;SDS011;54122;53.538;49.366;2023-02-24T15:31:06;12.27;;;4.80;;
67195;SDS011;54122;53.538;49.366;2023-02-24T15:33:40;15.93;;;5.68;;
67195;SDS011;54122;53.538;49.366;2023-02-24T15:36:17;13.48;;;5.20;;
67195;SDS011;54122;53.538;49.366;2023-02-24T15:38:45;14.52;;;4.60;;
67195;SDS011;54122;53.538;49.366;2023-02-24T15:41:15;17.50;;;6.10;;
67195;SDS011;54122;53.538;49.366;2023-02-24T15:43:45;27.65;;;9.43;;
67195;SDS011;54122;53.538;49.366;2023-02-24T15:48:44;23.45;;;7.20;;
67195;SDS011;54122;53.538;49.366;2023-02-24T15:51:20;16.13;;;6.13;;
67195;SDS011;54122;53.538;49.366;2023-02-24T15:53:51;18.55;;;6.18;;
67195;SDS011;54122;53.538;49.366;2023-02-24T15:56:18;21.23;;;6.30;;
67195;SDS011;54122;53.538;49.366;2023-02-24T15:58:44;17.83;;;7.30;;
67195;SDS011;54122;53.538;49.366;2023-02-24T16:01:11;21.10;;;7.70;;
67195;SDS011;54122;53.538;49.366;2023-02-24T16:03:38;20.92;;;8.80;;
67195;SDS011;54122;53.538;49.366;2023-02-24T16:06:04;19.83;;;7.78;;
67195;SDS011;54122;53.538;49.366;2023-02-24T16:08:31;24.52;;;8.10;;
67195;SDS011;54122;53.538;49.366;2023-02-24T16:11:09;20.20;;;6.70;;
67195;SDS011;54122;53.538;49.366;2023-02-24T16:13:36;18.45;;;5.88;;
67195;SDS011;54122;53.538;49.366;2023-02-24T16:16:04;15.02;;;5.90;;
67195;SDS011;54122;53.538;49.366;2023-02-24T16:18:31;18.63;;;6.13;;
67195;SDS011;54122;53.538;49.366;2023-02-24T16:20:58;14.68;;;6.68;;
67195;SDS011;54122;53.538;49.366;2023-02-24T16:23:24;17.42;;;6.07;;
67195;SDS011;54122;53.538;49.366;2023-02-24T16:25:55;24.25;;;6.60;;
67195;SDS011;54122;53.538;49.366;2023-02-24T16:28:23;30.52;;;7.78;;
67195;SDS011;54122;53.538;49.366;2023-02-24T16:30:50;19.50;;;6.68;;
67195;SDS011;54122;53.538;49.366;2023-02-24T16:33:17;18.70;;;6.38;;
67195;SDS011;54122;53.538;49.366;2023-02-24T16:35:47;15.85;;;5.28;;
67195;SDS011;54122;53.538;49.366;2023-02-24T16:38:18;26.60;;;8.35;;
67195;SDS011;54122;53.538;49.366;2023-02-24T16:40:46;14.38;;;4.68;;
67195;SDS011;54122;53.538;49.366;2023-02-24T16:43:14;20.67;;;5.20;;
67195;SDS011;54122;53.538;49.366;2023-02-24T16:45:40;19.05;;;5.93;;
67195;SDS011;54122;53.538;49.366;2023-02-24T16:48:29;11.38;;;5.43;;
67195;SDS011;54122;53.538;49.366;2023-02-24T16:50:59;27.65;;;7.43;;
67195;SDS011;54122;53.538;49.366;2023-02-24T16:53:26;22.20;;;6.35;;
67195;SDS011;54122;53.538;49.366;2023-02-24T16:55:52;26.58;;;9.70;;
67195;SDS011;54122;53.538;49.366;2023-02-24T16:58:18;33.63;;;8.82;;
67195;SDS011;54122;53.538;49.366;2023-02-24T17:00:46;25.80;;;7.32;;
67195;SDS011;54122;53.538;49.366;2023-02-24T17:05:54;10.82;;;4.90;;
67195;SDS011;54122;53.538;49.366;2023-02-24T17:08:22;26.48;;;7.20;;
67195;SDS011;54122;53.538;49.366;2023-02-24T17:10:48;15.50;;;5.75;;